Time;durP1;ratioP1;P1;durP2;ratioP2;P2;SDS_P1;SDS_P2;PMS_P1;PMS_P2;Temp;Humidity;BMP_temperature;BMP_pressure;BME280_temperature;BME280_humidity;BME280_pressure;Samples;Min_cycle;Max_cycle;Signal;HPM_P1;HPM_P2
2023/09/28 00:00:49;;;;;;;0.75;0.75;;;18.50;84.60;;;;;;6082467;23;20442;-78
2023/09/28 00:03:15;;;;;;;1.73;1.00;;;18.60;85.10;;;;;;6123153;23;20016;-77
2023/09/28 00:05:41;;;;;;;1.48;0.90;;;18.60;84.40;;;;;;6158166;23;20005;-78
2023/09/28 00:08:07;;;;;;;0.77;0.77;;;18.60;84.30;;;;;;6156419;23;20014;-78
2023/09/28 00:10:36;;;;;;;1.30;1.13;;;18.70;84.20;;;;;;6184135;23;20036;-79
2023/09/28 00:13:02;;;;;;;2.35;1.08;;;18.70;84.00;;;;;;6097656;23;20010;-78
2023/09/28 00:15:28;;;;;;;1.35;1.08;;;18.80;83.80;;;;;;6073695;23;20145;-77
2023/09/28 00:17:54;;;;;;;1.45;1.00;;;18.90;83.60;;;;;;6073322;23;20071;-78
2023/09/28 00:20:22;;;;;;;1.33;1.05;;;18.90;83.40;;;;;;6121379;23;20056;-77
2023/09/28 00:22:51;;;;;;;1.42;1.10;;;19.10;83.20;;;;;;6097867;23;20460;-77
2023/09/28 00:25:19;;;;;;;2.67;1.20;;;19.10;83.50;;;;;;6050988;23;20060;-78
2023/09/28 00:27:50;;;;;;;1.42;1.33;;;19.20;82.90;;;;;;6124761;23;20096;-78
2023/09/28 00:30:19;;;;;;;2.53;1.20;;;19.10;82.70;;;;;;6064779;23;20059;-78
2023/09/28 00:32:47;;;;;;;2.13;1.30;;;19.20;82.60;;;;;;6041856;23;20311;-77
2023/09/28 00:35:14;;;;;;;1.73;1.10;;;19.20;82.50;;;;;;6065821;23;20379;-76
2023/09/28 00:37:41;;;;;;;1.92;1.35;;;19.20;82.50;;;;;;6040187;23;20021;-77
2023/09/28 00:40:18;;;;;;;1.42;1.20;;;19.20;82.40;;;;;;6040223;23;21310;-77
2023/09/28 00:42:46;;;;;;;1.33;1.20;;;19.20;82.50;;;;;;6064144;23;20023;-79
2023/09/28 00:45:12;;;;;;;2.00;1.10;;;19.30;82.60;;;;;;6121625;23;20009;-77
2023/09/28 00:47:39;;;;;;;1.98;1.17;;;19.10;82.50;;;;;;6097175;23;20033;-77
2023/09/28 00:50:09;;;;;;;1.55;1.20;;;19.10;82.50;;;;;;6122128;23;20006;-78
2023/09/28 00:52:38;;;;;;;1.55;1.30;;;19.10;82.50;;;;;;6122936;23;20018;-77
2023/09/28 00:55:08;;;;;;;1.80;1.10;;;19.10;82.40;;;;;;6108651;23;20073;-76
2023/09/28 00:57:37;;;;;;;2.03;1.23;;;19.10;82.40;;;;;;6099589;23;20089;-76
2023/09/28 01:00:18;;;;;;;1.27;1.13;;;19.10;83.00;;;;;;6096252;23;20097;-76
2023/09/28 01:02:44;;;;;;;1.73;1.20;;;19.10;82.40;;;;;;6097967;23;20081;-77
2023/09/28 01:05:10;;;;;;;1.50;1.08;;;19.10;82.50;;;;;;6122753;23;20026;-77
2023/09/28 01:07:36;;;;;;;1.73;1.15;;;19.00;82.50;;;;;;6121635;23;20431;-76
2023/09/28 01:10:02;;;;;;;1.65;1.02;;;19.00;82.60;;;;;;6098044;23;20092;-77
2023/09/28 01:12:29;;;;;;;1.33;1.00;;;19.00;82.80;;;;;;6098093;23;20017;-78
2023/09/28 01:14:57;;;;;;;1.50;0.93;;;18.90;82.80;;;;;;6122705;23;20014;-77
2023/09/28 01:17:32;;;;;;;1.58;0.90;;;18.90;82.90;;;;;;6098580;23;20010;-75
2023/09/28 01:19:59;;;;;;;1.17;0.93;;;18.80;82.90;;;;;;6073313;23;20037;-76
2023/09/28 01:22:25;;;;;;;1.42;0.90;;;18.80;83.10;;;;;;6098008;23;20046;-76
2023/09/28 01:24:51;;;;;;;1.40;1.10;;;18.80;83.20;;;;;;6122763;23;20024;-76
2023/09/28 01:27:17;;;;;;;1.00;0.90;;;18.90;83.30;;;;;;6097114;23;20014;-77
2023/09/28 01:29:42;;;;;;;1.42;1.15;;;18.80;83.30;;;;;;6122287;23;20018;-77
2023/09/28 01:32:11;;;;;;;1.55;1.00;;;18.70;83.30;;;;;;6049634;23;20010;-76
2023/09/28 01:34:37;;;;;;;1.77;1.30;;;18.70;83.20;;;;;;6127610;23;20041;-77
2023/09/28 01:37:02;;;;;;;1.27;1.00;;;18.80;83.20;;;;;;6158211;23;20005;-76
2023/09/28 01:39:33;;;;;;;1.58;1.08;;;18.70;83.10;;;;;;6182538;23;20059;-77
2023/09/28 01:42:00;;;;;;;0.60;0.60;;;18.70;83.20;;;;;;6157264;23;20429;-77
2023/09/28 01:44:25;;;;;;;0.98;0.80;;;18.60;83.30;;;;;;6183916;23;20063;-77
2023/09/28 01:46:51;;;;;;;1.10;1.00;;;18.60;83.40;;;;;;6157137;23;20091;-76
2023/09/28 01:49:17;;;;;;;1.00;0.90;;;18.50;83.60;;;;;;6157229;23;20005;-77
2023/09/28 01:51:43;;;;;;;1.00;0.90;;;18.50;83.80;;;;;;6157333;23;20385;-76
2023/09/28 01:54:09;;;;;;;1.90;1.00;;;18.40;83.80;;;;;;6132362;23;20001;-77
2023/09/28 01:56:35;;;;;;;1.33;1.10;;;18.40;83.90;;;;;;6157720;23;20311;-77
2023/09/28 01:59:00;;;;;;;1.23;0.90;;;18.40;83.90;;;;;;6156236;23;20015;-78
2023/09/28 02:01:27;;;;;;;1.00;0.90;;;18.30;83.90;;;;;;6132309;23;20144;-78
2023/09/28 02:03:52;;;;;;;0.88;0.82;;;18.40;84.00;;;;;;6157051;23;20005;-78
2023/09/28 02:06:18;;;;;;;1.33;1.00;;;18.40;83.90;;;;;;6157278;23;20011;-78
2023/09/28 02:08:45;;;;;;;1.60;1.02;;;18.40;83.80;;;;;;6183379;23;20017;-78
2023/09/28 02:11:11;;;;;;;1.35;1.05;;;18.40;83.70;;;;;;6156116;23;20088;-77
2023/09/28 02:13:37;;;;;;;1.90;0.80;;;18.40;83.70;;;;;;6156924;23;20032;-78
2023/09/28 02:16:07;;;;;;;1.05;1.00;;;18.40;83.70;;;;;;6129037;23;20020;-77
2023/09/28 02:18:33;;;;;;;1.20;0.90;;;18.40;83.80;;;;;;6158304;23;20017;-77
2023/09/28 02:20:59;;;;;;;1.90;1.10;;;18.40;83.80;;;;;;6132260;23;20329;-78
2023/09/28 02:23:26;;;;;;;0.95;0.85;;;18.30;83.80;;;;;;6157726;23;20015;-78
2023/09/28 02:25:52;;;;;;;1.25;1.10;;;18.40;83.80;;;;;;6156941;23;20032;-77
2023/09/28 02:28:17;;;;;;;1.10;1.00;;;18.40;83.70;;;;;;6133081;23;20009;-77
2023/09/28 02:30:43;;;;;;;1.67;1.05;;;18.40;83.70;;;;;;6157039;23;20040;-77
2023/09/28 02:33:10;;;;;;;1.60;0.80;;;18.40;83.60;;;;;;6120265;23;20097;-77
2023/09/28 02:35:36;;;;;;;1.10;1.00;;;18.40;83.60;;;;;;6098254;23;20020;-77
2023/09/28 02:38:02;;;;;;;1.63;1.17;;;18.40;83.60;;;;;;6122547;23;20042;-78
2023/09/28 02:40:29;;;;;;;1.67;0.98;;;18.50;83.60;;;;;;6122856;23;20014;-77
2023/09/28 02:42:55;;;;;;;1.83;1.10;;;18.50;83.60;;;;;;6097038;23;20403;-76
2023/09/28 02:45:21;;;;;;;1.35;0.90;;;18.50;83.50;;;;;;6097595;23;20085;-76
2023/09/28 02:47:48;;;;;;;1.90;0.90;;;18.50;83.50;;;;;;6097290;23;20422;-77
2023/09/28 02:50:16;;;;;;;1.45;1.10;;;18.50;83.50;;;;;;6098128;23;20014;-77
2023/09/28 02:52:45;;;;;;;1.98;1.15;;;18.50;83.60;;;;;;6098074;23;20530;-77
2023/09/28 02:55:12;;;;;;;1.00;0.90;;;18.50;83.60;;;;;;6121651;23;20030;-76
2023/09/28 02:57:39;;;;;;;1.33;1.00;;;18.40;83.60;;;;;;6073219;23;20377;-76
2023/09/28 03:00:27;;;;;;;2.20;0.90;;;18.40;83.70;;;;;;6097908;23;20029;-77
2023/09/28 03:02:56;;;;;;;1.13;0.88;;;18.50;83.80;;;;;;6121288;23;20025;-76
2023/09/28 03:05:23;;;;;;;0.80;0.80;;;18.40;83.80;;;;;;6099641;23;20010;-76
2023/09/28 03:07:49;;;;;;;1.10;0.88;;;18.40;83.80;;;;;;6121523;23;20065;-76
2023/09/28 03:10:15;;;;;;;1.65;1.00;;;18.40;83.80;;;;;;6119497;23;20020;-77
2023/09/28 03:12:42;;;;;;;1.30;1.10;;;18.30;83.80;;;;;;6157014;23;20005;-76
2023/09/28 03:15:11;;;;;;;1.00;0.90;;;18.30;83.90;;;;;;6156653;23;20001;-76
2023/09/28 03:17:39;;;;;;;1.08;0.90;;;18.40;84.10;;;;;;6155970;23;20032;-77
2023/09/28 03:22:44;;;;;;;1.10;1.00;;;18.20;84.10;;;;;;6137040;23;20107;-76
2023/09/28 03:25:16;;;;;;;1.92;1.00;;;18.20;84.30;;;;;;6184168;23;20413;-77
2023/09/28 03:27:42;;;;;;;1.13;1.02;;;18.20;84.40;;;;;;6157621;23;20449;-76
2023/09/28 03:30:10;;;;;;;1.45;0.95;;;18.20;84.50;;;;;;6183617;23;20001;-76
2023/09/28 03:32:38;;;;;;;1.52;1.02;;;18.20;84.50;;;;;;6157688;23;20373;-76
2023/09/28 03:35:10;;;;;;;0.90;0.80;;;18.10;84.50;;;;;;6132098;23;20012;-76
2023/09/28 03:37:36;;;;;;;0.70;0.70;;;18.00;84.50;;;;;;6182999;23;20063;-76
2023/09/28 03:40:10;;;;;;;1.05;0.70;;;18.10;84.60;;;;;;6157355;23;20009;-76
2023/09/28 03:42:37;;;;;;;1.92;0.88;;;18.10;84.70;;;;;;6096351;23;20455;-77
2023/09/28 03:45:08;;;;;;;1.55;0.90;;;18.00;84.60;;;;;;6121377;23;20354;-76
2023/09/28 03:47:37;;;;;;;1.15;1.05;;;18.00;84.70;;;;;;6039026;23;20137;-76
2023/09/28 03:50:06;;;;;;;1.50;1.02;;;18.00;84.80;;;;;;6039310;23;20467;-77
2023/09/28 03:52:34;;;;;;;1.60;1.00;;;17.90;84.80;;;;;;6063151;23;20098;-76
2023/09/28 03:54:59;;;;;;;1.52;1.00;;;17.90;84.80;;;;;;6063533;23;20003;-77
2023/09/28 03:57:25;;;;;;;0.88;0.85;;;17.90;84.90;;;;;;6039863;23;20185;-77
2023/09/28 03:59:51;;;;;;;1.10;1.00;;;17.90;85.00;;;;;;6039362;23;20464;-76
2023/09/28 04:02:17;;;;;;;1.42;0.90;;;17.80;85.00;;;;;;6063515;23;20068;-76
2023/09/28 04:04:43;;;;;;;2.20;1.25;;;17.80;85.00;;;;;;6015412;23;20042;-77
2023/09/28 04:07:08;;;;;;;1.45;1.13;;;17.80;85.10;;;;;;6039055;23;20014;-77
2023/09/28 04:09:35;;;;;;;1.10;0.90;;;17.80;85.20;;;;;;6039470;23;20015;-76
2023/09/28 04:12:01;;;;;;;2.08;1.02;;;17.80;85.30;;;;;;6063248;23;20348;-76
2023/09/28 04:14:27;;;;;;;1.65;1.13;;;17.80;85.30;;;;;;6065609;23;20013;-76
2023/09/28 04:16:54;;;;;;;1.20;0.88;;;17.70;85.30;;;;;;6088275;23;20002;-76
2023/09/28 04:19:20;;;;;;;1.20;1.00;;;17.60;85.30;;;;;;6148414;23;20010;-76
2023/09/28 04:21:46;;;;;;;1.13;0.90;;;17.70;85.40;;;;;;6185323;23;20008;-76
2023/09/28 04:24:11;;;;;;;1.80;1.13;;;17.70;85.40;;;;;;6131319;23;20425;-77
2023/09/28 04:26:38;;;;;;;0.90;0.80;;;17.70;85.40;;;;;;6182681;23;20433;-76
2023/09/28 04:29:06;;;;;;;2.10;0.90;;;17.70;85.50;;;;;;6132671;23;20522;-77
2023/09/28 04:31:32;;;;;;;1.50;1.15;;;17.60;85.50;;;;;;6133271;23;20056;-77
2023/09/28 04:33:58;;;;;;;2.33;1.15;;;17.60;85.60;;;;;;6184285;23;20076;-77
2023/09/28 04:36:24;;;;;;;1.80;1.25;;;17.60;85.70;;;;;;6133339;23;20436;-76
2023/09/28 04:38:50;;;;;;;1.10;0.98;;;17.50;85.70;;;;;;6183968;23;20434;-76
2023/09/28 04:41:17;;;;;;;1.92;1.20;;;17.50;85.80;;;;;;6158155;23;20008;-76
2023/09/28 04:43:43;;;;;;;1.98;1.30;;;17.60;86.00;;;;;;6158065;23;20009;-77
2023/09/28 04:46:09;;;;;;;1.20;1.10;;;17.40;86.00;;;;;;6157692;23;20429;-76
2023/09/28 04:48:35;;;;;;;1.20;1.05;;;17.50;86.00;;;;;;6157883;23;20028;-77
2023/09/28 04:51:03;;;;;;;1.45;1.10;;;17.50;86.10;;;;;;6133224;23;20123;-77
2023/09/28 04:53:29;;;;;;;1.55;1.27;;;17.40;86.00;;;;;;6133592;23;20092;-77
2023/09/28 04:55:54;;;;;;;2.13;1.10;;;17.40;86.10;;;;;;6184409;23;20024;-77
2023/09/28 04:58:20;;;;;;;1.25;1.10;;;17.50;86.30;;;;;;6157835;23;20012;-76
2023/09/28 05:00:46;;;;;;;1.45;1.05;;;17.30;86.20;;;;;;6187735;23;20001;-76
2023/09/28 05:03:11;;;;;;;2.63;1.20;;;17.40;86.30;;;;;;6157933;23;20008;-77
2023/09/28 05:05:37;;;;;;;3.47;1.30;;;17.30;86.30;;;;;;6157950;23;20009;-77
2023/09/28 05:08:06;;;;;;;1.10;1.00;;;17.40;86.30;;;;;;6159458;23;20482;-76
2023/09/28 05:10:31;;;;;;;1.73;1.00;;;17.30;86.30;;;;;;6158141;23;20012;-77
2023/09/28 05:12:58;;;;;;;1.23;0.98;;;17.30;86.30;;;;;;6158926;23;20028;-77
2023/09/28 05:15:24;;;;;;;1.45;1.15;;;17.30;86.40;;;;;;6133042;23;20337;-77
2023/09/28 05:17:49;;;;;;;1.50;1.08;;;17.30;86.60;;;;;;6132603;23;20005;-76
2023/09/28 05:20:15;;;;;;;1.75;1.00;;;17.20;86.50;;;;;;6186828;23;20013;-77
2023/09/28 05:22:43;;;;;;;0.70;0.70;;;17.20;87.20;;;;;;6184756;23;20377;-77
2023/09/28 05:25:09;;;;;;;1.38;1.00;;;17.20;86.70;;;;;;6158466;23;20013;-78
2023/09/28 05:27:35;;;;;;;3.05;1.40;;;17.20;86.80;;;;;;6156976;23;20495;-78
2023/09/28 05:30:01;;;;;;;1.80;1.35;;;17.10;86.90;;;;;;6183809;23;20377;-78
2023/09/28 05:32:27;;;;;;;2.17;1.10;;;17.10;87.00;;;;;;6132741;23;20001;-78
2023/09/28 05:34:53;;;;;;;1.67;1.20;;;17.10;87.00;;;;;;6157282;23;20032;-77
2023/09/28 05:37:18;;;;;;;1.30;1.00;;;17.10;87.00;;;;;;6133055;23;20008;-77
2023/09/28 05:39:44;;;;;;;1.35;0.90;;;17.00;86.90;;;;;;6156967;23;20008;-77
2023/09/28 05:42:10;;;;;;;1.10;1.00;;;17.00;87.00;;;;;;6183862;23;20005;-77
2023/09/28 05:44:35;;;;;;;2.85;1.10;;;16.90;87.00;;;;;;6157365;23;20001;-77
2023/09/28 05:47:01;;;;;;;1.30;0.85;;;17.00;87.20;;;;;;6184217;23;20187;-78
2023/09/28 05:49:27;;;;;;;0.90;0.90;;;16.90;87.20;;;;;;6183678;23;20013;-77
2023/09/28 05:51:53;;;;;;;1.20;1.05;;;16.90;87.30;;;;;;6157161;23;20001;-77
2023/09/28 05:54:19;;;;;;;0.80;0.80;;;16.80;87.90;;;;;;6157252;23;20080;-77
2023/09/28 05:56:45;;;;;;;1.50;1.02;;;16.80;87.40;;;;;;6157370;23;20001;-77
2023/09/28 05:59:11;;;;;;;1.63;1.10;;;16.80;87.50;;;;;;6184458;23;19997;-77
2023/09/28 06:01:37;;;;;;;0.98;0.80;;;16.70;87.50;;;;;;6183817;23;19997;-76
2023/09/28 06:04:04;;;;;;;1.58;1.20;;;16.70;87.60;;;;;;6183839;23;20059;-76
2023/09/28 06:06:30;;;;;;;1.10;0.90;;;16.70;87.70;;;;;;6157260;23;20005;-76
2023/09/28 06:08:56;;;;;;;2.28;0.88;;;16.60;87.70;;;;;;6183981;23;20016;-76
2023/09/28 06:11:22;;;;;;;1.42;1.00;;;16.70;87.80;;;;;;6133427;23;20005;-77
2023/09/28 06:13:48;;;;;;;1.15;0.80;;;16.60;87.80;;;;;;6191901;23;20001;-77
2023/09/28 06:16:15;;;;;;;2.15;1.23;;;16.70;87.90;;;;;;6141663;23;20078;-77
2023/09/28 06:18:42;;;;;;;1.50;1.00;;;16.60;87.90;;;;;;6192548;23;20036;-76
2023/09/28 06:21:07;;;;;;;1.23;1.00;;;16.50;87.80;;;;;;6141506;23;20013;-76
2023/09/28 06:23:34;;;;;;;1.17;1.08;;;16.70;88.00;;;;;;6165573;23;20027;-77
2023/09/28 06:26:01;;;;;;;1.70;0.98;;;16.60;87.90;;;;;;6142920;23;20008;-76
2023/09/28 06:28:27;;;;;;;2.03;1.15;;;16.60;87.90;;;;;;6195464;23;20032;-76
2023/09/28 06:30:53;;;;;;;1.58;0.93;;;16.50;87.80;;;;;;6144698;23;20117;-76
2023/09/28 06:33:22;;;;;;;2.55;1.15;;;16.50;87.80;;;;;;6166563;23;20001;-76
2023/09/28 06:35:47;;;;;;;1.95;0.98;;;16.50;87.80;;;;;;6183323;23;20009;-76
2023/09/28 06:38:13;;;;;;;1.60;0.90;;;16.50;87.80;;;;;;6157688;23;20005;-76
2023/09/28 06:40:41;;;;;;;1.20;0.80;;;16.50;87.70;;;;;;6184263;23;20013;-75
2023/09/28 06:43:07;;;;;;;2.47;0.95;;;16.50;87.70;;;;;;6132267;23;20033;-76
2023/09/28 06:45:33;;;;;;;1.58;1.00;;;16.50;87.70;;;;;;6132512;23;20496;-76
2023/09/28 06:47:59;;;;;;;1.25;0.90;;;16.60;87.80;;;;;;6155527;23;20334;-76
2023/09/28 06:50:25;;;;;;;1.17;0.77;;;16.50;87.70;;;;;;6156887;23;20009;-76
2023/09/28 06:52:51;;;;;;;0.80;0.80;;;16.50;87.70;;;;;;6157111;23;19997;-75
2023/09/28 06:55:17;;;;;;;0.95;0.75;;;16.60;87.70;;;;;;6157591;23;19997;-76
2023/09/28 06:57:44;;;;;;;1.55;0.90;;;16.60;87.70;;;;;;6184151;23;20005;-75
2023/09/28 07:00:16;;;;;;;1.35;1.00;;;16.60;87.70;;;;;;6183295;23;20063;-75
2023/09/28 07:02:47;;;;;;;2.47;0.93;;;16.60;87.70;;;;;;6160112;23;20004;-76
2023/09/28 07:05:14;;;;;;;1.17;0.80;;;16.60;88.30;;;;;;6185090;23;20012;-76
2023/09/28 07:07:42;;;;;;;1.35;1.00;;;16.60;87.70;;;;;;6183578;23;20005;-75
2023/09/28 07:10:10;;;;;;;1.77;0.85;;;16.70;87.60;;;;;;6132392;23;20030;-76
2023/09/28 07:12:36;;;;;;;1.08;0.73;;;16.70;87.50;;;;;;6158711;23;20425;-76
2023/09/28 07:15:02;;;;;;;2.08;1.10;;;16.70;87.40;;;;;;6113568;23;20008;-76
2023/09/28 07:17:30;;;;;;;2.38;0.80;;;16.70;87.40;;;;;;6165786;23;20024;-77
2023/09/28 07:19:56;;;;;;;2.92;1.35;;;16.70;87.40;;;;;;6133178;23;20008;-77
2023/09/28 07:22:23;;;;;;;2.00;1.00;;;16.80;87.40;;;;;;6138012;23;20008;-77
2023/09/28 07:25:06;;;;;;;1.88;1.10;;;16.70;87.20;;;;;;6102943;23;20017;-77
2023/09/28 07:27:32;;;;;;;1.20;0.90;;;16.80;87.20;;;;;;6104632;23;20030;-76
2023/09/28 07:30:06;;;;;;;1.70;0.88;;;16.80;87.00;;;;;;6075091;23;20109;-76
2023/09/28 07:32:32;;;;;;;2.08;0.80;;;16.90;87.00;;;;;;6080429;23;20002;-77
2023/09/28 07:35:00;;;;;;;2.72;1.00;;;16.90;86.90;;;;;;6130689;23;20386;-77
2023/09/28 07:37:27;;;;;;;1.33;0.85;;;16.90;86.80;;;;;;6102468;23;20018;-75
2023/09/28 07:39:54;;;;;;;3.95;1.10;;;17.00;86.80;;;;;;6103725;23;20092;-76
2023/09/28 07:42:20;;;;;;;3.03;1.10;;;17.00;86.70;;;;;;6101804;23;20010;-75
2023/09/28 07:44:47;;;;;;;2.70;0.80;;;17.00;86.60;;;;;;6098722;23;20032;-74
2023/09/28 07:47:13;;;;;;;2.50;1.00;;;17.00;86.60;;;;;;6103588;23;20052;-74
2023/09/28 07:49:40;;;;;;;3.78;1.20;;;17.10;87.30;;;;;;6130174;23;20013;-74
2023/09/28 07:52:08;;;;;;;4.90;0.90;;;17.10;86.50;;;;;;6105017;23;20002;-75
2023/09/28 07:54:36;;;;;;;2.95;0.77;;;17.20;86.40;;;;;;6132897;23;20002;-75
2023/09/28 07:57:04;;;;;;;5.90;1.05;;;17.20;86.30;;;;;;6167077;23;20009;-76
2023/09/28 07:59:32;;;;;;;2.03;0.80;;;17.30;86.30;;;;;;6164942;23;20008;-75
2023/09/28 08:01:58;;;;;;;3.13;1.10;;;17.30;86.20;;;;;;6141566;23;20056;-76
2023/09/28 08:04:24;;;;;;;3.38;1.00;;;17.30;86.00;;;;;;6186337;23;20013;-75
2023/09/28 08:06:49;;;;;;;3.63;0.90;;;17.40;86.00;;;;;;6137344;23;20011;-76
2023/09/28 08:09:15;;;;;;;2.90;0.93;;;17.40;85.90;;;;;;6112983;23;20011;-76
2023/09/28 08:11:41;;;;;;;2.70;1.00;;;17.50;85.80;;;;;;6135146;23;20033;-74
2023/09/28 08:14:09;;;;;;;2.28;0.80;;;17.60;85.60;;;;;;6164274;23;19997;-75
2023/09/28 08:16:36;;;;;;;2.78;1.05;;;17.60;85.60;;;;;;6139768;23;20032;-75
2023/09/28 08:19:02;;;;;;;2.38;1.00;;;17.70;85.50;;;;;;6111427;23;20001;-76
2023/09/28 08:21:28;;;;;;;2.28;0.70;;;17.70;85.40;;;;;;6169310;23;20001;-75
2023/09/28 08:23:58;;;;;;;1.77;0.93;;;17.70;85.30;;;;;;6112754;23;20020;-75
2023/09/28 08:26:38;;;;;;;2.88;1.05;;;17.70;85.30;;;;;;6019970;23;20419;-75
2023/09/28 08:29:05;;;;;;;5.32;1.10;;;17.80;85.30;;;;;;5963875;23;20055;-75
2023/09/28 08:31:32;;;;;;;4.40;1.33;;;17.80;85.20;;;;;;5990076;23;20548;-76
2023/09/28 08:33:59;;;;;;;3.47;0.95;;;17.80;85.10;;;;;;5934043;24;20099;-75
2023/09/28 08:36:26;;;;;;;3.13;1.00;;;17.80;85.00;;;;;;5980771;24;20031;-75
2023/09/28 08:38:55;;;;;;;3.25;1.23;;;17.90;84.90;;;;;;5957694;24;20024;-75
2023/09/28 08:44:24;;;;;;;;;;;18.10;84.90;;;;;;5930602;24;20427;-76
2023/09/28 08:47:00;;;;;;;4.97;1.33;;;18.10;84.70;;;;;;5940265;24;19995;-76
2023/09/28 08:49:30;;;;;;;2.67;0.93;;;18.10;84.50;;;;;;5793636;24;20465;-75
2023/09/28 08:51:57;;;;;;;3.45;0.90;;;18.20;85.00;;;;;;5793983;24;20027;-75
2023/09/28 08:54:23;;;;;;;4.45;1.30;;;18.30;84.30;;;;;;5790640;24;20102;-74
2023/09/28 08:56:50;;;;;;;3.80;1.27;;;18.30;84.20;;;;;;5789814;24;20015;-75
2023/09/28 08:59:17;;;;;;;4.97;1.35;;;18.40;83.90;;;;;;5784440;24;20015;-74
2023/09/28 09:01:47;;;;;;;3.03;1.02;;;18.40;83.80;;;;;;5822141;24;20468;-77
2023/09/28 09:04:16;;;;;;;4.25;1.00;;;18.50;83.80;;;;;;5911862;24;20020;-77
2023/09/28 09:06:50;;;;;;;3.53;1.05;;;18.50;83.70;;;;;;5896207;24;20017;-76
2023/09/28 09:09:18;;;;;;;5.47;1.20;;;18.60;83.70;;;;;;5844983;24;20132;-76
2023/09/28 09:11:52;;;;;;;3.20;1.00;;;18.60;83.60;;;;;;5796512;24;20034;-75
2023/09/28 09:14:20;;;;;;;3.25;1.30;;;18.70;83.40;;;;;;5844896;24;20026;-76
2023/09/28 09:16:46;;;;;;;3.47;1.20;;;18.80;83.20;;;;;;5897211;24;20025;-75
2023/09/28 09:19:14;;;;;;;3.58;1.33;;;18.70;83.00;;;;;;5878725;24;20060;-76
2023/09/28 09:21:44;;;;;;;3.58;1.17;;;18.70;83.10;;;;;;5900118;24;20024;-75
2023/09/28 09:24:13;;;;;;;2.80;1.27;;;18.70;83.10;;;;;;5929307;24;20030;-75
